createdAt,value
2022-11-16T00:01:52.396Z,17.10
2022-11-16T00:04:24.246Z,16.90
2022-11-16T00:06:56.171Z,16.60
2022-11-16T00:09:29.811Z,16.50
2022-11-16T00:12:03.824Z,16.30
2022-11-16T00:14:36.475Z,16.10
2022-11-16T00:17:08.265Z,15.90
2022-11-16T00:19:40.137Z,15.80
2022-11-16T00:22:11.988Z,15.70
2022-11-16T00:24:45.193Z,15.50
2022-11-16T00:27:16.987Z,15.40
2022-11-16T00:29:48.790Z,15.30
2022-11-16T00:32:20.575Z,15.20
2022-11-16T00:34:52.360Z,15.10
2022-11-16T00:37:24.172Z,14.90
2022-11-16T00:39:57.293Z,14.80
2022-11-16T00:42:29.043Z,14.70
2022-11-16T00:45:00.834Z,14.60
2022-11-16T00:47:32.590Z,14.50
2022-11-16T00:50:05.404Z,14.50
2022-11-16T00:52:37.196Z,14.40
2022-11-16T00:55:10.403Z,14.40
2022-11-16T00:57:42.232Z,14.30
2022-11-16T01:00:15.039Z,14.30
2022-11-16T01:02:46.855Z,14.30
2022-11-16T01:05:18.836Z,14.20
2022-11-16T01:07:51.275Z,14.20
2022-11-16T01:10:26.775Z,14.20
2022-11-16T01:12:59.034Z,14.20
2022-11-16T01:15:30.823Z,14.10
2022-11-16T01:18:02.601Z,14.10
2022-11-16T01:20:34.381Z,14.10
2022-11-16T01:23:06.209Z,14.10
2022-11-16T01:25:39.340Z,14.00
2022-11-16T01:28:11.133Z,14.00
2022-11-16T01:30:48.146Z,14.00
2022-11-16T01:33:19.960Z,14.00
2022-11-16T01:35:51.802Z,13.90
2022-11-16T01:38:27.223Z,13.90
2022-11-16T01:41:02.774Z,13.90
2022-11-16T01:43:50.926Z,13.90
2022-11-16T01:46:22.946Z,13.80
2022-11-16T01:49:00.527Z,13.80
2022-11-16T01:51:33.491Z,13.80
2022-11-16T01:54:09.817Z,13.80
2022-11-16T01:56:45.212Z,13.70
2022-11-16T01:59:17.836Z,13.70
2022-11-16T02:01:49.634Z,13.80
2022-11-16T02:04:21.489Z,13.70
2022-11-16T02:07:01.719Z,13.70
2022-11-16T02:09:54.523Z,13.70
2022-11-16T02:12:45.308Z,13.60
2022-11-16T02:15:24.210Z,13.70
2022-11-16T02:18:07.381Z,13.70
2022-11-16T02:21:16.919Z,13.70
2022-11-16T02:24:07.421Z,13.60
2022-11-16T02:27:12.064Z,13.60
2022-11-16T02:29:50.036Z,13.50
2022-11-16T02:32:28.605Z,13.50
2022-11-16T02:35:06.154Z,13.50
2022-11-16T02:37:43.786Z,13.40
2022-11-16T02:40:17.159Z,13.40
2022-11-16T02:42:51.402Z,13.40
2022-11-16T02:45:27.141Z,13.30
2022-11-16T02:48:04.588Z,13.30
2022-11-16T02:50:38.303Z,13.30
2022-11-16T02:53:10.256Z,13.30
2022-11-16T02:55:42.196Z,13.30
2022-11-16T02:58:17.942Z,13.20
2022-11-16T03:00:57.206Z,13.30
2022-11-16T03:03:35.118Z,13.30
2022-11-16T03:06:13.736Z,13.30
2022-11-16T03:08:52.203Z,13.20
2022-11-16T03:11:42.440Z,13.20
2022-11-16T03:14:17.526Z,13.20
2022-11-16T03:16:53.585Z,13.20
2022-11-16T03:19:32.728Z,13.20
2022-11-16T03:22:11.291Z,13.20
2022-11-16T03:24:43.639Z,13.20
2022-11-16T03:27:24.470Z,13.20
2022-11-16T03:30:04.531Z,13.20
2022-11-16T03:32:44.862Z,13.20
2022-11-16T03:35:22.186Z,13.20
2022-11-16T03:37:57.588Z,13.20
2022-11-16T03:40:31.992Z,13.10
2022-11-16T03:43:06.526Z,13.10
2022-11-16T03:45:38.654Z,13.10
2022-11-16T03:48:11.907Z,13.00
2022-11-16T03:50:44.066Z,13.00
2022-11-16T03:53:15.873Z,13.00
2022-11-16T03:55:49.935Z,13.00
2022-11-16T03:58:22.005Z,13.00
2022-11-16T04:00:54.268Z,13.00
2022-11-16T04:03:27.396Z,12.90
2022-11-16T04:06:18.048Z,12.90
2022-11-16T04:09:28.400Z,12.80
2022-11-16T04:12:18.685Z,12.80
2022-11-16T04:15:16.745Z,12.70
2022-11-16T04:18:06.992Z,12.70
2022-11-16T04:20:58.705Z,12.60
2022-11-16T04:23:49.594Z,12.60
2022-11-16T04:26:41.400Z,12.60
2022-11-16T04:29:13.913Z,12.50
2022-11-16T04:32:04.589Z,12.50
2022-11-16T04:34:55.205Z,12.50
2022-11-16T04:37:46.878Z,12.50
2022-11-16T04:40:20.297Z,12.50
2022-11-16T04:42:52.379Z,12.40
2022-11-16T04:45:43.646Z,12.40
2022-11-16T04:48:16.969Z,12.40
2022-11-16T04:50:48.628Z,12.40
2022-11-16T04:53:23.974Z,12.40
2022-11-16T04:56:00.633Z,12.40
2022-11-16T04:58:33.445Z,12.40
2022-11-16T05:01:05.553Z,12.40
2022-11-16T05:03:37.399Z,12.40
2022-11-16T05:06:09.194Z,12.40
2022-11-16T05:08:42.312Z,12.40
2022-11-16T05:11:14.101Z,12.40
2022-11-16T05:13:45.879Z,12.40
2022-11-16T05:16:17.705Z,12.40
2022-11-16T05:19:09.442Z,12.40
2022-11-16T05:21:41.233Z,12.40
2022-11-16T05:24:33.144Z,12.40
2022-11-16T05:27:07.387Z,12.40
2022-11-16T05:29:39.771Z,12.40
2022-11-16T05:32:12.835Z,12.40
2022-11-16T05:34:44.743Z,12.40
2022-11-16T05:37:17.436Z,12.50
2022-11-16T05:39:50.688Z,12.50
2022-11-16T05:42:22.489Z,12.50
2022-11-16T05:44:54.314Z,12.50
2022-11-16T05:47:26.166Z,12.50
2022-11-16T05:49:57.956Z,12.60
2022-11-16T05:52:29.743Z,12.60
2022-11-16T05:55:03.015Z,12.60
2022-11-16T05:57:34.786Z,12.60
2022-11-16T06:00:07.924Z,12.50
2022-11-16T06:02:39.817Z,12.50
2022-11-16T06:05:11.703Z,12.50
2022-11-16T06:07:43.585Z,12.40
2022-11-16T06:10:16.869Z,12.40
2022-11-16T06:12:48.642Z,12.40
2022-11-16T06:15:20.409Z,12.40
2022-11-16T06:17:52.171Z,12.30
2022-11-16T06:20:24.007Z,12.30
2022-11-16T06:22:55.792Z,12.30
2022-11-16T06:25:30.802Z,12.30
2022-11-16T06:28:07.477Z,12.30
2022-11-16T06:30:40.620Z,12.20
2022-11-16T06:33:12.400Z,12.20
2022-11-16T06:35:44.674Z,12.20
2022-11-16T06:38:20.183Z,12.20
2022-11-16T06:40:55.048Z,12.20
2022-11-16T06:43:27.082Z,12.10
2022-11-16T06:45:59.024Z,12.10
2022-11-16T06:48:31.197Z,12.10
2022-11-16T06:51:03.309Z,12.10
2022-11-16T06:53:35.276Z,12.10
2022-11-16T06:56:12.219Z,12.10
2022-11-16T06:58:44.011Z,12.10
2022-11-16T07:01:15.869Z,12.00
2022-11-16T07:03:47.662Z,12.00
2022-11-16T07:06:19.540Z,12.00
2022-11-16T07:08:51.341Z,12.00
2022-11-16T07:11:24.495Z,12.00
2022-11-16T07:13:56.344Z,12.00
2022-11-16T07:16:28.842Z,11.90
2022-11-16T07:19:00.776Z,11.90
2022-11-16T07:21:32.771Z,11.90
2022-11-16T07:24:04.852Z,11.90
2022-11-16T07:26:37.981Z,12.00
2022-11-16T07:29:09.783Z,12.00
2022-11-16T07:31:41.680Z,12.00
2022-11-16T07:34:13.518Z,12.00
2022-11-16T07:36:45.299Z,12.10
2022-11-16T07:39:17.157Z,12.00
2022-11-16T07:41:53.065Z,12.10
2022-11-16T07:44:24.907Z,12.10
2022-11-16T07:46:56.674Z,12.10
2022-11-16T07:49:28.513Z,12.10
2022-11-16T07:52:00.323Z,12.10
2022-11-16T07:54:32.320Z,12.10
2022-11-16T07:57:05.546Z,12.20
2022-11-16T07:59:37.381Z,12.20
2022-11-16T08:02:09.899Z,12.20
2022-11-16T08:04:41.786Z,12.30
2022-11-16T08:07:14.422Z,12.30
2022-11-16T08:09:46.515Z,12.30
2022-11-16T08:12:19.805Z,12.30
2022-11-16T08:14:51.790Z,12.30
2022-11-16T08:17:23.619Z,12.30
2022-11-16T08:19:55.453Z,12.40
2022-11-16T08:22:27.275Z,12.40
2022-11-16T08:24:59.096Z,12.40
2022-11-16T08:27:33.270Z,12.40
2022-11-16T08:30:09.841Z,12.40
2022-11-16T08:32:42.430Z,12.40
2022-11-16T08:35:14.367Z,12.40
2022-11-16T08:37:46.580Z,12.40
2022-11-16T08:40:18.404Z,12.40
2022-11-16T08:42:56.956Z,12.50
2022-11-16T08:45:28.950Z,12.50
2022-11-16T08:48:03.923Z,12.50
2022-11-16T08:50:55.375Z,12.60
2022-11-16T08:53:28.106Z,12.60
2022-11-16T08:56:03.568Z,12.60
2022-11-16T08:58:36.753Z,12.60
2022-11-16T09:01:10.091Z,12.60
2022-11-16T09:03:42.250Z,12.70
2022-11-16T09:06:14.515Z,12.70
2022-11-16T09:08:46.645Z,12.70
2022-11-16T09:11:21.969Z,12.70
2022-11-16T09:13:55.761Z,12.70
2022-11-16T09:16:27.977Z,12.70
2022-11-16T09:19:00.884Z,12.70
2022-11-16T09:21:32.712Z,12.70
2022-11-16T09:24:04.971Z,12.80
2022-11-16T09:26:36.771Z,12.80
2022-11-16T09:29:14.679Z,12.80
2022-11-16T09:31:48.964Z,12.90
2022-11-16T09:34:20.908Z,12.90
2022-11-16T09:36:52.737Z,12.90
2022-11-16T09:39:31.044Z,13.00
2022-11-16T09:42:18.793Z,13.00
2022-11-16T09:45:00.347Z,13.10
2022-11-16T09:47:40.886Z,13.10
2022-11-16T09:50:26.676Z,13.10
2022-11-16T09:53:06.154Z,13.20
2022-11-16T09:55:46.792Z,13.20
2022-11-16T09:58:23.891Z,13.30
2022-11-16T10:01:03.456Z,13.40
2022-11-16T10:03:42.759Z,13.40
2022-11-16T10:06:21.630Z,13.50
2022-11-16T10:08:56.767Z,13.60
2022-11-16T10:11:48.800Z,13.70
2022-11-16T10:14:45.159Z,13.70
2022-11-16T10:17:25.341Z,13.80
2022-11-16T10:20:18.358Z,13.80
2022-11-16T10:22:59.501Z,13.80
2022-11-16T10:25:43.264Z,13.80
2022-11-16T10:28:45.618Z,13.80
2022-11-16T10:31:21.202Z,13.80
2022-11-16T10:33:58.924Z,13.80
2022-11-16T10:36:33.835Z,13.80
2022-11-16T10:39:12.966Z,13.90
2022-11-16T10:41:48.786Z,13.90
2022-11-16T10:44:30.094Z,14.00
2022-11-16T10:47:05.953Z,14.00
2022-11-16T10:49:47.923Z,14.00
2022-11-16T10:52:21.751Z,14.10
2022-11-16T10:54:55.001Z,14.10
2022-11-16T10:57:58.756Z,14.20
2022-11-16T11:00:39.678Z,14.20
2022-11-16T11:03:12.016Z,14.30
2022-11-16T11:05:50.016Z,14.30
2022-11-16T11:08:27.601Z,14.40
2022-11-16T11:11:03.224Z,14.40
2022-11-16T11:13:36.948Z,14.40
2022-11-16T11:16:17.220Z,14.50
2022-11-16T11:18:54.286Z,14.50
2022-11-16T11:21:27.432Z,14.50
2022-11-16T11:24:29.428Z,14.60
2022-11-16T11:26:57.107Z,14.60
2022-11-16T11:29:33.161Z,14.60
2022-11-16T11:32:07.607Z,14.80
2022-11-16T11:34:43.582Z,15.00
2022-11-16T11:37:17.645Z,15.30
2022-11-16T11:40:17.406Z,15.50
2022-11-16T11:42:58.028Z,15.80
2022-11-16T11:45:42.152Z,16.00
2022-11-16T11:48:27.905Z,16.30
2022-11-16T11:51:08.854Z,16.50
2022-11-16T11:53:51.938Z,16.60
2022-11-16T11:56:24.842Z,16.70
2022-11-16T11:58:56.866Z,16.50
2022-11-16T12:01:57.407Z,16.40
2022-11-16T12:05:02.626Z,16.20
2022-11-16T12:07:47.893Z,16.00
2022-11-16T12:10:27.567Z,15.90
2022-11-16T12:13:10.737Z,15.90
2022-11-16T12:15:58.929Z,16.00
2022-11-16T12:18:50.840Z,16.50
2022-11-16T12:21:31.823Z,16.80
2022-11-16T12:24:17.947Z,17.20
2022-11-16T12:27:02.162Z,17.40
2022-11-16T12:29:45.078Z,17.70
2022-11-16T12:32:50.140Z,18.00
2022-11-16T12:35:47.812Z,18.30
2022-11-16T12:38:42.158Z,18.40
2022-11-16T12:41:39.830Z,18.50
2022-11-16T12:44:14.122Z,18.60
2022-11-16T12:46:59.083Z,18.40
2022-11-16T12:49:46.925Z,18.20
2022-11-16T12:52:41.310Z,18.00
2022-11-16T12:55:27.134Z,18.10
2022-11-16T12:58:16.721Z,18.10
2022-11-16T13:01:02.735Z,18.40
2022-11-16T13:03:42.788Z,18.80
2022-11-16T13:06:19.704Z,19.10
2022-11-16T13:09:01.680Z,19.40
2022-11-16T13:11:37.985Z,19.80
2022-11-16T13:14:14.032Z,20.10
2022-11-16T13:16:47.331Z,20.20
2022-11-16T13:19:19.099Z,20.40
2022-11-16T13:21:56.055Z,20.40
2022-11-16T13:24:42.265Z,20.40
2022-11-16T13:27:25.043Z,20.20
2022-11-16T13:30:03.650Z,19.80
2022-11-16T13:32:49.363Z,19.30
2022-11-16T13:35:21.458Z,18.90
2022-11-16T13:37:53.534Z,18.50
2022-11-16T13:40:29.310Z,18.20
2022-11-16T13:43:04.875Z,18.00
2022-11-16T13:45:41.088Z,17.70
2022-11-16T13:48:19.218Z,17.50
2022-11-16T13:50:53.865Z,17.30
2022-11-16T13:56:28.646Z,17.00
2022-11-16T13:59:00.855Z,16.80
2022-11-16T14:01:58.662Z,16.60
2022-11-16T14:04:42.805Z,16.60
2022-11-16T14:07:37.197Z,16.50
2022-11-16T14:10:10.454Z,16.40
2022-11-16T14:12:54.010Z,16.30
2022-11-16T14:15:34.484Z,16.20
2022-11-16T14:18:31.777Z,16.20
2022-11-16T14:21:21.817Z,16.20
2022-11-16T14:24:11.293Z,16.20
2022-11-16T14:26:52.536Z,16.20
2022-11-16T14:29:44.127Z,16.20
2022-11-16T14:32:20.823Z,16.20
2022-11-16T14:34:55.278Z,16.20
2022-11-16T14:37:33.591Z,16.20
2022-11-16T14:40:09.046Z,16.10
2022-11-16T14:43:09.908Z,16.10
2022-11-16T14:45:41.098Z,16.10
2022-11-16T14:48:14.470Z,16.10
2022-11-16T14:50:58.724Z,16.10
2022-11-16T14:53:32.088Z,16.20
2022-11-16T14:56:09.664Z,16.20
2022-11-16T14:58:50.889Z,16.20
2022-11-16T15:01:27.241Z,16.30
2022-11-16T15:04:04.373Z,16.30
2022-11-16T15:06:41.559Z,16.30
2022-11-16T15:09:18.207Z,16.30
2022-11-16T15:12:09.293Z,16.30
2022-11-16T15:14:46.400Z,16.30
2022-11-16T15:17:22.246Z,16.20
2022-11-16T15:19:55.866Z,16.10
2022-11-16T15:22:30.078Z,16.00
2022-11-16T15:25:02.135Z,16.00
2022-11-16T15:27:36.537Z,15.90
2022-11-16T15:30:16.968Z,15.90
2022-11-16T15:32:51.917Z,15.80
2022-11-16T15:35:28.617Z,15.70
2022-11-16T15:38:01.919Z,15.60
2022-11-16T15:40:34.028Z,15.60
2022-11-16T15:43:07.083Z,15.50
2022-11-16T15:45:42.036Z,15.40
2022-11-16T15:48:19.880Z,15.30
2022-11-16T15:51:00.171Z,15.30
2022-11-16T15:53:38.637Z,15.20
2022-11-16T15:56:15.112Z,15.00
2022-11-16T15:58:47.534Z,14.90
2022-11-16T16:01:26.070Z,14.90
2022-11-16T16:04:03.971Z,14.80
2022-11-16T16:06:47.428Z,14.70
2022-11-16T16:09:25.592Z,14.70
2022-11-16T16:12:17.064Z,14.60
2022-11-16T16:14:49.998Z,14.50
2022-11-16T16:17:23.841Z,14.50
2022-11-16T16:19:58.609Z,14.40
2022-11-16T16:22:32.668Z,14.40
2022-11-16T16:25:06.570Z,14.40
2022-11-16T16:27:40.015Z,14.30
2022-11-16T16:30:14.715Z,14.30
2022-11-16T16:32:51.701Z,14.20
2022-11-16T16:35:26.307Z,14.10
2022-11-16T16:38:00.713Z,14.10
2022-11-16T16:40:32.580Z,14.00
2022-11-16T16:43:04.421Z,13.90
2022-11-16T16:45:38.768Z,13.80
2022-11-16T16:48:13.900Z,13.80
2022-11-16T16:50:47.088Z,13.70
2022-11-16T16:53:18.970Z,13.70
2022-11-16T16:55:50.983Z,13.70
2022-11-16T16:58:25.541Z,13.60
2022-11-16T17:01:01.252Z,13.60
2022-11-16T17:03:34.411Z,13.60
2022-11-16T17:06:07.871Z,13.70
2022-11-16T17:08:39.782Z,14.00
2022-11-16T17:11:14.830Z,14.30
2022-11-16T17:13:47.038Z,14.60
2022-11-16T17:16:18.974Z,14.90
2022-11-16T17:18:54.940Z,15.20
2022-11-16T17:21:28.123Z,15.40
2022-11-16T17:23:59.938Z,15.70
2022-11-16T17:26:31.803Z,15.80
2022-11-16T17:29:03.795Z,15.90
2022-11-16T17:31:36.292Z,16.00
2022-11-16T17:34:13.215Z,16.20
2022-11-16T17:36:47.150Z,16.40
2022-11-16T17:39:19.303Z,16.60
2022-11-16T17:41:51.581Z,16.70
2022-11-16T17:44:23.444Z,16.80
2022-11-16T17:46:55.263Z,16.80
2022-11-16T17:49:27.163Z,17.00
2022-11-16T17:52:01.648Z,17.10
2022-11-16T17:54:33.549Z,17.20
2022-11-16T17:57:05.452Z,17.20
2022-11-16T17:59:37.255Z,17.30
2022-11-16T18:02:10.634Z,17.40
2022-11-16T18:04:46.896Z,17.40
2022-11-16T18:07:24.122Z,17.50
2022-11-16T18:09:55.862Z,17.50
2022-11-16T18:12:27.733Z,17.50
2022-11-16T18:15:21.710Z,17.60
2022-11-16T18:17:51.377Z,17.70
2022-11-16T18:20:24.436Z,17.80
2022-11-16T18:22:57.761Z,17.80
2022-11-16T18:25:29.569Z,17.90
2022-11-16T18:28:01.485Z,17.80
2022-11-16T18:30:33.339Z,17.90
2022-11-16T18:33:05.158Z,17.90
2022-11-16T18:35:37.008Z,18.00
2022-11-16T18:38:13.318Z,18.00
2022-11-16T18:40:45.171Z,18.00
2022-11-16T18:43:16.996Z,18.10
2022-11-16T18:45:48.819Z,18.10
2022-11-16T18:48:20.628Z,18.10
2022-11-16T18:50:52.455Z,18.10
2022-11-16T18:53:25.805Z,18.20
2022-11-16T18:55:58.315Z,18.20
2022-11-16T19:01:26.338Z,18.10
2022-11-16T19:03:58.293Z,18.10
2022-11-16T19:06:32.079Z,18.10
2022-11-16T19:09:09.477Z,17.90
2022-11-16T19:11:41.340Z,17.50
2022-11-16T19:14:13.376Z,17.20
2022-11-16T19:16:54.093Z,16.90
2022-11-16T19:19:29.870Z,16.70
2022-11-16T19:22:01.709Z,16.60
2022-11-16T19:24:35.040Z,16.60
2022-11-16T19:27:06.693Z,16.70
2022-11-16T19:29:38.594Z,16.70
2022-11-16T19:32:10.410Z,16.80
2022-11-16T19:34:42.197Z,16.80
2022-11-16T19:37:15.087Z,16.90
2022-11-16T19:39:48.280Z,17.00
2022-11-16T19:42:20.130Z,17.00
2022-11-16T19:44:52.016Z,17.10
2022-11-16T19:47:26.196Z,17.20
2022-11-16T19:49:58.212Z,17.20
2022-11-16T19:52:30.196Z,17.30
2022-11-16T19:55:03.613Z,17.30
2022-11-16T19:57:35.416Z,17.40
2022-11-16T20:00:08.571Z,17.30
2022-11-16T20:02:40.526Z,17.40
2022-11-16T20:05:12.319Z,17.40
2022-11-16T20:07:44.693Z,17.40
2022-11-16T20:10:33.261Z,17.50
2022-11-16T20:13:05.522Z,17.60
2022-11-16T20:15:40.082Z,17.60
2022-11-16T20:18:11.994Z,17.60
2022-11-16T20:20:44.365Z,17.70
2022-11-16T20:23:19.755Z,17.70
2022-11-16T20:25:52.861Z,17.70
2022-11-16T20:28:24.701Z,17.70
2022-11-16T20:30:56.822Z,17.70
2022-11-16T20:33:28.603Z,17.70
2022-11-16T20:36:01.784Z,17.70
2022-11-16T20:38:34.131Z,17.70
2022-11-16T20:41:12.483Z,17.60
2022-11-16T20:43:45.839Z,17.60
2022-11-16T20:46:18.823Z,17.50
2022-11-16T20:48:50.930Z,17.40
2022-11-16T20:51:23.761Z,17.30
2022-11-16T20:53:55.760Z,17.30
2022-11-16T20:56:28.963Z,17.20
2022-11-16T20:59:00.930Z,17.20
2022-11-16T21:01:32.802Z,17.20
2022-11-16T21:04:06.112Z,17.20
2022-11-16T21:06:37.911Z,17.20
2022-11-16T21:09:11.246Z,17.20
2022-11-16T21:12:02.943Z,17.30
2022-11-16T21:14:34.775Z,17.20
2022-11-16T21:17:08.884Z,17.20
2022-11-16T21:19:49.883Z,17.20
2022-11-16T21:22:32.828Z,17.20
2022-11-16T21:25:05.027Z,17.20
2022-11-16T21:27:38.235Z,17.20
2022-11-16T21:30:11.335Z,17.10
2022-11-16T21:32:43.248Z,17.20
2022-11-16T21:35:18.239Z,17.20
2022-11-16T21:37:57.819Z,17.20
2022-11-16T21:40:37.149Z,17.20
2022-11-16T21:43:10.328Z,17.20
2022-11-16T21:45:46.239Z,17.20
2022-11-16T21:48:18.293Z,17.20
2022-11-16T21:50:59.724Z,17.20
2022-11-16T21:53:34.875Z,17.20
2022-11-16T21:56:10.659Z,17.20
2022-11-16T21:58:44.303Z,17.20
2022-11-16T22:01:16.544Z,17.20
2022-11-16T22:04:07.637Z,17.20
2022-11-16T22:07:02.168Z,17.10
2022-11-16T22:09:33.995Z,17.10
2022-11-16T22:12:12.027Z,17.00
2022-11-16T22:14:45.173Z,17.00
2022-11-16T22:17:16.992Z,17.00
2022-11-16T22:19:49.081Z,16.90
2022-11-16T22:22:21.428Z,16.60
2022-11-16T22:24:56.430Z,16.30
2022-11-16T22:27:28.341Z,16.00
2022-11-16T22:30:07.900Z,15.60
2022-11-16T22:32:44.819Z,15.30
2022-11-16T22:35:16.690Z,15.00
2022-11-16T22:37:48.502Z,14.70
2022-11-16T22:40:21.459Z,14.50
2022-11-16T22:42:56.711Z,14.30
2022-11-16T22:45:29.959Z,14.10
2022-11-16T22:48:01.786Z,13.80
2022-11-16T22:50:33.685Z,13.60
2022-11-16T22:53:08.816Z,13.50
2022-11-16T22:55:40.932Z,13.40
2022-11-16T22:58:12.719Z,13.30
2022-11-16T23:00:46.210Z,13.20
2022-11-16T23:03:18.080Z,13.10
2022-11-16T23:05:50.129Z,13.00
2022-11-16T23:08:24.801Z,12.90
2022-11-16T23:11:18.950Z,12.90
2022-11-16T23:14:10.746Z,12.80
2022-11-16T23:16:44.504Z,12.70
2022-11-16T23:19:37.138Z,12.70
2022-11-16T23:22:31.362Z,12.60
2022-11-16T23:25:22.520Z,12.60
2022-11-16T23:27:58.994Z,12.50
2022-11-16T23:30:31.389Z,12.50
2022-11-16T23:33:04.893Z,12.50
2022-11-16T23:35:36.593Z,12.40
2022-11-16T23:38:08.623Z,12.40
2022-11-16T23:40:40.745Z,12.40
2022-11-16T23:43:31.341Z,12.30
2022-11-16T23:46:03.174Z,12.30
2022-11-16T23:48:36.398Z,12.30
2022-11-16T23:51:08.224Z,12.30
2022-11-16T23:53:39.999Z,12.30
2022-11-16T23:56:11.870Z,12.20
2022-11-16T23:58:43.750Z,12.20
